Tottenham, United Kingdom
Current Conditions -  °F | °C
As of 11:50 AM on Friday 21 Nov 2014 (Local Time) from EGLC Reporting Station
Scattered Clouds Scattered Clouds  
Wind Chill: 44°   Ceiling: Unl
Heat Index: 48°   Visibility: 4mi
Dew Point: 43°   Wind: 10mph
Humidity: 82%   Direction: 110°ESE
Pressure: 30.09"   Gusts: NA
Location:  51.6°N, 0.07°W
Report Text: EGLC 211150Z 11009KT 6000 SCT011 09/06 Q1019
Loading
Personal Weather Stations






























Interactive Weather Map New forecast layout! Learn more

10-Day Weather Forecast

Advertisements
Track Severe Weather on mobile